Eldoret International Airport

Airport
ICAO code: 
HKEL
IATA Code: 
EDL
Summary
ICAO Region: 
AFI
Territory: 
Location: 
Eldoret, Uasin County
Serving: 
Eldoret
Elevation: 
7050 ft
Coordinates: 
Aerial View: 
0° 24' 15.984" N, 35° 14' 20.004" E
Metar
Observation
HKEL 211100Z 10013KT 9999 FEW023CB BKN300 23/10 Q1023
Station
Eldoret
Date/Time
2022-01-21 11:00:00
Wind direction
100°
Wind speed
13 kts
Lowest cloud amount
few clouds
Temperature
23°C
Dew point
10°C
Humidity
43%
QNH
1023 hPa
Weather condition
n/a

Eldoret Airport, is located in the city of Eldoret, in Uasin Gishu County, in the midwestern Kenya, close to the International border with Uganda.

Climatology

Tropical Savannah climate (Köppen climate classification Aw)

Runways

Designator Length Width Surface Rops
8/26 3499 45 ASP Yes/Yes
Airport map: 
Aerial View: 

SKYbrary Partners:

Safety knowledge contributed by: